Port Jefferson, NY

5:08 AM EST on December 27, 2014 (GMT -0500)
Brookhaven | Change Station
CLOSE
Current Station
Airport
Location: Shirley,
Elevation: 82 ft
Nearby Weather Stations

Elev 82 ft 40.82 °N, 72.87 °W | Updated 12 minutes ago

Clear
Clear
30 °F
Feels Like 30 °F
N
0
Wind Variable Wind from North

Today
High -- | Low -- °F
--% Chance of Precip.
Yesterday
High -- | Low -- °F
Precip. -- in
7:15 AM 4:30 PM
Waxing Crescent, 35% visible
Pressure 30.19 in
Visibility 7.0 miles
Clouds Clear
Dew Point 27 °F
Humidity 88%
Rainfall 0.00 in
Snow Depth Not available.
UV 0 out of 12
Pollen .10 out of 12
Air Quality Not available.
Flu Activity Not available.
METAR KHWV 270956Z AUTO 00000KT 7SM CLR M01/M03 A3019 RMK AO2 SLP224 T10111028 TSNO

More Conditions Fewer Conditions

Pressure 30.19 in
Visibility 7.0 miles
Clouds Clear
Dew Point 27 °F
Humidity 88%
Rainfall 0.00 in
Snow Depth Not available.
UV 0 out of 12
Pollen .10 out of 12
Air Quality Not available.
Flu Activity Not available.
METAR KHWV 270956Z AUTO 00000KT 7SM CLR M01/M03 A3019 RMK AO2 SLP224 T10111028 TSNO

More Conditions Fewer Conditions

10-Day Weather Forecast

Almanac

Astronomy

Dec. 27, 2014 Rise Set
Actual Time
Civil Twilight
Nautical Twilight
Astronomical Twilight
Moon
Length of Visible Light
Length of Day
Tomorrow will be .
, % of the Moon is Illuminated

Today's Extremes

State Highs State Lows

Community

WunderPhotos

Upload Photos

1,780,869 photos uploaded!

WunderBlogs® & News

Nearby

Air Quality

  Air Quality AQ Index Pollutant
Not available.

Snow Depth

Station Depth Elevation

Earthquake Activity

City Distance Mag. Time & Date
Minimum magnitude displayed is 2.5.

Coastal Water Temperatures

Place Temperature

Nearby Weather Stations